sensor_id;sensor_type;location;lat;lon;timestamp;P1;durP1;ratioP1;P2;durP2;ratioP2
42832;SDS011;64089;51.478;5.692;2024-02-21T00:01:44;16.15;;;4.05;;
42832;SDS011;64089;51.478;5.692;2024-02-21T00:04:10;14.77;;;4.88;;
42832;SDS011;64089;51.478;5.692;2024-02-21T00:06:35;15.60;;;5.88;;
42832;SDS011;64089;51.478;5.692;2024-02-21T00:09:01;13.32;;;4.57;;
42832;SDS011;64089;51.478;5.692;2024-02-21T00:11:27;14.88;;;4.75;;
42832;SDS011;64089;51.478;5.692;2024-02-21T00:13:53;18.25;;;4.60;;
42832;SDS011;64089;51.478;5.692;2024-02-21T00:16:19;15.73;;;4.47;;
42832;SDS011;64089;51.478;5.692;2024-02-21T00:18:45;20.80;;;4.95;;
42832;SDS011;64089;51.478;5.692;2024-02-21T00:21:10;14.63;;;3.17;;
42832;SDS011;64089;51.478;5.692;2024-02-21T00:26:08;24.23;;;5.55;;
42832;SDS011;64089;51.478;5.692;2024-02-21T00:28:34;10.85;;;4.57;;
42832;SDS011;64089;51.478;5.692;2024-02-21T00:30:59;14.57;;;4.03;;
42832;SDS011;64089;51.478;5.692;2024-02-21T00:33:25;10.30;;;4.18;;
42832;SDS011;64089;51.478;5.692;2024-02-21T00:35:51;14.45;;;4.07;;
42832;SDS011;64089;51.478;5.692;2024-02-21T00:38:16;9.85;;;4.28;;
42832;SDS011;64089;51.478;5.692;2024-02-21T00:40:42;14.10;;;4.25;;
42832;SDS011;64089;51.478;5.692;2024-02-21T00:43:07;10.38;;;3.72;;
42832;SDS011;64089;51.478;5.692;2024-02-21T00:45:33;15.23;;;4.35;;
42832;SDS011;64089;51.478;5.692;2024-02-21T00:47:58;18.17;;;4.57;;
42832;SDS011;64089;51.478;5.692;2024-02-21T00:50:24;16.67;;;4.25;;
42832;SDS011;64089;51.478;5.692;2024-02-21T00:52:49;11.80;;;3.97;;
42832;SDS011;64089;51.478;5.692;2024-02-21T00:55:15;7.70;;;3.67;;
42832;SDS011;64089;51.478;5.692;2024-02-21T00:57:41;20.73;;;4.80;;
42832;SDS011;64089;51.478;5.692;2024-02-21T01:00:06;15.57;;;3.58;;
42832;SDS011;64089;51.478;5.692;2024-02-21T01:02:33;12.32;;;3.92;;
42832;SDS011;64089;51.478;5.692;2024-02-21T01:04:58;10.27;;;3.88;;
42832;SDS011;64089;51.478;5.692;2024-02-21T01:07:24;13.07;;;3.17;;
42832;SDS011;64089;51.478;5.692;2024-02-21T01:09:50;11.45;;;3.80;;
42832;SDS011;64089;51.478;5.692;2024-02-21T01:12:18;10.68;;;4.00;;
42832;SDS011;64089;51.478;5.692;2024-02-21T01:14:44;11.38;;;4.07;;
42832;SDS011;64089;51.478;5.692;2024-02-21T01:17:11;11.98;;;3.67;;
42832;SDS011;64089;51.478;5.692;2024-02-21T01:19:37;7.55;;;3.65;;
42832;SDS011;64089;51.478;5.692;2024-02-21T01:22:03;11.23;;;3.33;;
42832;SDS011;64089;51.478;5.692;2024-02-21T01:24:29;23.67;;;4.22;;
42832;SDS011;64089;51.478;5.692;2024-02-21T01:26:55;10.95;;;3.90;;
42832;SDS011;64089;51.478;5.692;2024-02-21T01:29:20;10.55;;;3.38;;
42832;SDS011;64089;51.478;5.692;2024-02-21T01:31:46;10.07;;;4.15;;
42832;SDS011;64089;51.478;5.692;2024-02-21T01:34:12;14.98;;;4.07;;
42832;SDS011;64089;51.478;5.692;2024-02-21T01:36:38;11.63;;;3.30;;
42832;SDS011;64089;51.478;5.692;2024-02-21T01:39:04;10.73;;;3.30;;
42832;SDS011;64089;51.478;5.692;2024-02-21T01:41:30;12.10;;;3.50;;
42832;SDS011;64089;51.478;5.692;2024-02-21T01:43:56;9.77;;;3.58;;
42832;SDS011;64089;51.478;5.692;2024-02-21T01:46:22;7.55;;;3.10;;
42832;SDS011;64089;51.478;5.692;2024-02-21T01:48:52;13.35;;;3.58;;
42832;SDS011;64089;51.478;5.692;2024-02-21T01:51:19;9.70;;;3.85;;
42832;SDS011;64089;51.478;5.692;2024-02-21T01:53:44;10.90;;;4.32;;
42832;SDS011;64089;51.478;5.692;2024-02-21T01:56:12;13.43;;;3.25;;
42832;SDS011;64089;51.478;5.692;2024-02-21T01:58:38;9.38;;;3.55;;
42832;SDS011;64089;51.478;5.692;2024-02-21T02:01:05;21.00;;;4.55;;
42832;SDS011;64089;51.478;5.692;2024-02-21T02:03:31;15.98;;;4.28;;
42832;SDS011;64089;51.478;5.692;2024-02-21T02:05:57;9.98;;;3.40;;
42832;SDS011;64089;51.478;5.692;2024-02-21T02:08:22;12.73;;;3.67;;
42832;SDS011;64089;51.478;5.692;2024-02-21T02:10:48;11.18;;;4.45;;
42832;SDS011;64089;51.478;5.692;2024-02-21T02:13:14;9.48;;;3.90;;
42832;SDS011;64089;51.478;5.692;2024-02-21T02:18:12;11.52;;;3.45;;
42832;SDS011;64089;51.478;5.692;2024-02-21T02:20:39;18.83;;;4.13;;
42832;SDS011;64089;51.478;5.692;2024-02-21T02:25:54;4.57;;;2.63;;
42832;SDS011;64089;51.478;5.692;2024-02-21T02:28:21;11.07;;;3.30;;
42832;SDS011;64089;51.478;5.692;2024-02-21T02:30:47;12.68;;;3.97;;
42832;SDS011;64089;51.478;5.692;2024-02-21T02:33:13;12.32;;;4.15;;
42832;SDS011;64089;51.478;5.692;2024-02-21T02:35:39;5.57;;;3.00;;
42832;SDS011;64089;51.478;5.692;2024-02-21T02:38:05;11.02;;;3.40;;
42832;SDS011;64089;51.478;5.692;2024-02-21T02:40:31;8.65;;;2.70;;
42832;SDS011;64089;51.478;5.692;2024-02-21T02:43:00;7.72;;;3.70;;
42832;SDS011;64089;51.478;5.692;2024-02-21T02:45:26;7.50;;;2.88;;
42832;SDS011;64089;51.478;5.692;2024-02-21T02:47:52;10.70;;;3.22;;
42832;SDS011;64089;51.478;5.692;2024-02-21T02:50:25;9.60;;;2.95;;
42832;SDS011;64089;51.478;5.692;2024-02-21T02:52:52;10.45;;;3.40;;
42832;SDS011;64089;51.478;5.692;2024-02-21T02:55:18;16.45;;;3.88;;
42832;SDS011;64089;51.478;5.692;2024-02-21T02:57:44;8.13;;;3.33;;
42832;SDS011;64089;51.478;5.692;2024-02-21T03:00:10;11.45;;;3.20;;
42832;SDS011;64089;51.478;5.692;2024-02-21T03:02:37;11.50;;;3.13;;
42832;SDS011;64089;51.478;5.692;2024-02-21T03:05:11;12.13;;;3.67;;
42832;SDS011;64089;51.478;5.692;2024-02-21T03:07:41;9.52;;;3.25;;
42832;SDS011;64089;51.478;5.692;2024-02-21T03:10:07;12.27;;;3.67;;
42832;SDS011;64089;51.478;5.692;2024-02-21T03:12:33;10.05;;;3.13;;
42832;SDS011;64089;51.478;5.692;2024-02-21T03:14:59;17.77;;;3.40;;
42832;SDS011;64089;51.478;5.692;2024-02-21T03:17:25;9.77;;;3.33;;
42832;SDS011;64089;51.478;5.692;2024-02-21T03:19:52;11.57;;;3.17;;
42832;SDS011;64089;51.478;5.692;2024-02-21T03:22:17;9.88;;;2.97;;
42832;SDS011;64089;51.478;5.692;2024-02-21T03:24:44;3.75;;;2.42;;
42832;SDS011;64089;51.478;5.692;2024-02-21T03:27:10;7.10;;;2.97;;
42832;SDS011;64089;51.478;5.692;2024-02-21T03:29:36;12.73;;;3.45;;
42832;SDS011;64089;51.478;5.692;2024-02-21T03:32:01;9.25;;;3.50;;
42832;SDS011;64089;51.478;5.692;2024-02-21T03:34:27;8.95;;;3.15;;
42832;SDS011;64089;51.478;5.692;2024-02-21T03:36:53;8.52;;;3.35;;
42832;SDS011;64089;51.478;5.692;2024-02-21T03:39:18;7.50;;;2.85;;
42832;SDS011;64089;51.478;5.692;2024-02-21T03:41:45;12.60;;;4.68;;
42832;SDS011;64089;51.478;5.692;2024-02-21T03:44:10;10.00;;;3.55;;
42832;SDS011;64089;51.478;5.692;2024-02-21T03:46:36;11.82;;;3.10;;
42832;SDS011;64089;51.478;5.692;2024-02-21T03:49:01;10.57;;;3.47;;
42832;SDS011;64089;51.478;5.692;2024-02-21T03:51:27;7.43;;;3.78;;
42832;SDS011;64089;51.478;5.692;2024-02-21T03:53:53;10.02;;;4.32;;
42832;SDS011;64089;51.478;5.692;2024-02-21T03:56:18;9.05;;;4.25;;
42832;SDS011;64089;51.478;5.692;2024-02-21T03:58:47;11.98;;;4.28;;
42832;SDS011;64089;51.478;5.692;2024-02-21T04:01:15;14.50;;;4.40;;
42832;SDS011;64089;51.478;5.692;2024-02-21T04:03:41;17.92;;;5.18;;
42832;SDS011;64089;51.478;5.692;2024-02-21T04:06:08;14.75;;;4.63;;
42832;SDS011;64089;51.478;5.692;2024-02-21T04:08:33;11.10;;;4.90;;
42832;SDS011;64089;51.478;5.692;2024-02-21T04:10:59;15.00;;;3.92;;
42832;SDS011;64089;51.478;5.692;2024-02-21T04:13:25;15.98;;;5.38;;
42832;SDS011;64089;51.478;5.692;2024-02-21T04:15:50;11.80;;;4.03;;
42832;SDS011;64089;51.478;5.692;2024-02-21T04:18:16;16.40;;;5.13;;
42832;SDS011;64089;51.478;5.692;2024-02-21T04:20:42;12.40;;;4.88;;
42832;SDS011;64089;51.478;5.692;2024-02-21T04:23:07;14.75;;;5.05;;
42832;SDS011;64089;51.478;5.692;2024-02-21T04:25:33;12.98;;;5.03;;
42832;SDS011;64089;51.478;5.692;2024-02-21T04:27:59;11.00;;;4.15;;
42832;SDS011;64089;51.478;5.692;2024-02-21T04:30:24;8.45;;;4.60;;
42832;SDS011;64089;51.478;5.692;2024-02-21T04:32:50;13.75;;;4.78;;
42832;SDS011;64089;51.478;5.692;2024-02-21T04:35:16;15.90;;;4.85;;
42832;SDS011;64089;51.478;5.692;2024-02-21T04:37:42;14.50;;;4.80;;
42832;SDS011;64089;51.478;5.692;2024-02-21T04:40:07;12.80;;;3.92;;
42832;SDS011;64089;51.478;5.692;2024-02-21T04:42:34;11.95;;;4.10;;
42832;SDS011;64089;51.478;5.692;2024-02-21T04:45:00;14.57;;;4.00;;
42832;SDS011;64089;51.478;5.692;2024-02-21T04:47:26;22.63;;;5.28;;
42832;SDS011;64089;51.478;5.692;2024-02-21T04:49:52;11.57;;;4.15;;
42832;SDS011;64089;51.478;5.692;2024-02-21T04:52:17;13.90;;;4.53;;
42832;SDS011;64089;51.478;5.692;2024-02-21T04:54:43;15.60;;;4.43;;
42832;SDS011;64089;51.478;5.692;2024-02-21T04:57:09;14.57;;;4.80;;
42832;SDS011;64089;51.478;5.692;2024-02-21T04:59:35;11.30;;;4.97;;
42832;SDS011;64089;51.478;5.692;2024-02-21T05:02:01;15.65;;;4.15;;
42832;SDS011;64089;51.478;5.692;2024-02-21T05:04:27;10.75;;;4.28;;
42832;SDS011;64089;51.478;5.692;2024-02-21T05:06:53;24.10;;;5.10;;
42832;SDS011;64089;51.478;5.692;2024-02-21T05:09:19;11.23;;;4.50;;
42832;SDS011;64089;51.478;5.692;2024-02-21T05:11:45;11.48;;;5.72;;
42832;SDS011;64089;51.478;5.692;2024-02-21T05:14:11;14.48;;;5.50;;
42832;SDS011;64089;51.478;5.692;2024-02-21T05:16:38;13.90;;;4.78;;
42832;SDS011;64089;51.478;5.692;2024-02-21T05:19:04;12.45;;;4.78;;
42832;SDS011;64089;51.478;5.692;2024-02-21T05:21:30;19.33;;;4.97;;
42832;SDS011;64089;51.478;5.692;2024-02-21T05:23:56;15.05;;;5.13;;
42832;SDS011;64089;51.478;5.692;2024-02-21T05:26:21;14.77;;;5.50;;
42832;SDS011;64089;51.478;5.692;2024-02-21T05:28:50;8.27;;;4.78;;
42832;SDS011;64089;51.478;5.692;2024-02-21T05:31:17;12.57;;;4.50;;
42832;SDS011;64089;51.478;5.692;2024-02-21T05:33:43;10.82;;;4.88;;
42832;SDS011;64089;51.478;5.692;2024-02-21T05:36:09;14.20;;;4.97;;
42832;SDS011;64089;51.478;5.692;2024-02-21T05:38:35;9.38;;;4.45;;
42832;SDS011;64089;51.478;5.692;2024-02-21T05:41:01;15.02;;;4.72;;
42832;SDS011;64089;51.478;5.692;2024-02-21T05:43:27;19.02;;;5.53;;
42832;SDS011;64089;51.478;5.692;2024-02-21T05:45:52;13.82;;;4.10;;
42832;SDS011;64089;51.478;5.692;2024-02-21T05:48:18;7.22;;;3.90;;
42832;SDS011;64089;51.478;5.692;2024-02-21T05:50:43;10.07;;;4.25;;
42832;SDS011;64089;51.478;5.692;2024-02-21T05:53:09;16.83;;;5.20;;
42832;SDS011;64089;51.478;5.692;2024-02-21T05:55:36;16.40;;;4.80;;
42832;SDS011;64089;51.478;5.692;2024-02-21T05:58:01;17.23;;;5.43;;
42832;SDS011;64089;51.478;5.692;2024-02-21T06:00:27;15.70;;;4.70;;
42832;SDS011;64089;51.478;5.692;2024-02-21T06:02:53;11.80;;;4.18;;
42832;SDS011;64089;51.478;5.692;2024-02-21T06:05:21;11.80;;;4.85;;
42832;SDS011;64089;51.478;5.692;2024-02-21T06:07:47;18.48;;;4.70;;
42832;SDS011;64089;51.478;5.692;2024-02-21T06:10:12;11.75;;;4.38;;
42832;SDS011;64089;51.478;5.692;2024-02-21T06:12:38;16.65;;;4.85;;
42832;SDS011;64089;51.478;5.692;2024-02-21T06:15:04;16.45;;;4.40;;
42832;SDS011;64089;51.478;5.692;2024-02-21T06:17:30;11.82;;;4.25;;
42832;SDS011;64089;51.478;5.692;2024-02-21T06:19:55;8.82;;;3.78;;
42832;SDS011;64089;51.478;5.692;2024-02-21T06:22:21;7.88;;;4.47;;
42832;SDS011;64089;51.478;5.692;2024-02-21T06:24:47;6.72;;;4.30;;
42832;SDS011;64089;51.478;5.692;2024-02-21T06:27:12;17.95;;;4.68;;
42832;SDS011;64089;51.478;5.692;2024-02-21T06:29:40;12.90;;;5.50;;
42832;SDS011;64089;51.478;5.692;2024-02-21T06:32:05;14.65;;;5.10;;
42832;SDS011;64089;51.478;5.692;2024-02-21T06:34:31;10.63;;;4.80;;
42832;SDS011;64089;51.478;5.692;2024-02-21T06:36:57;18.13;;;4.82;;
42832;SDS011;64089;51.478;5.692;2024-02-21T06:39:22;10.23;;;3.88;;
42832;SDS011;64089;51.478;5.692;2024-02-21T06:41:48;18.48;;;4.47;;
42832;SDS011;64089;51.478;5.692;2024-02-21T06:44:15;6.50;;;3.63;;
42832;SDS011;64089;51.478;5.692;2024-02-21T06:46:42;12.50;;;4.55;;
42832;SDS011;64089;51.478;5.692;2024-02-21T06:49:07;16.80;;;4.80;;
42832;SDS011;64089;51.478;5.692;2024-02-21T06:51:33;19.40;;;4.82;;
42832;SDS011;64089;51.478;5.692;2024-02-21T06:53:59;13.73;;;4.35;;
42832;SDS011;64089;51.478;5.692;2024-02-21T06:56:25;15.35;;;5.10;;
42832;SDS011;64089;51.478;5.692;2024-02-21T06:58:53;13.20;;;4.10;;
42832;SDS011;64089;51.478;5.692;2024-02-21T07:01:19;13.07;;;5.43;;
42832;SDS011;64089;51.478;5.692;2024-02-21T07:03:45;13.57;;;5.18;;
42832;SDS011;64089;51.478;5.692;2024-02-21T07:06:11;13.02;;;4.85;;
42832;SDS011;64089;51.478;5.692;2024-02-21T07:08:37;14.77;;;5.30;;
42832;SDS011;64089;51.478;5.692;2024-02-21T07:11:04;11.07;;;4.95;;
42832;SDS011;64089;51.478;5.692;2024-02-21T07:13:30;19.73;;;4.95;;
42832;SDS011;64089;51.478;5.692;2024-02-21T07:15:57;12.20;;;5.80;;
42832;SDS011;64089;51.478;5.692;2024-02-21T07:18:22;8.15;;;4.43;;
42832;SDS011;64089;51.478;5.692;2024-02-21T07:20:50;23.13;;;5.43;;
42832;SDS011;64089;51.478;5.692;2024-02-21T07:23:16;12.63;;;4.90;;
42832;SDS011;64089;51.478;5.692;2024-02-21T07:25:41;17.63;;;5.75;;
42832;SDS011;64089;51.478;5.692;2024-02-21T07:28:07;10.75;;;4.60;;
42832;SDS011;64089;51.478;5.692;2024-02-21T07:30:34;22.80;;;4.75;;
42832;SDS011;64089;51.478;5.692;2024-02-21T07:33:00;15.68;;;4.78;;
42832;SDS011;64089;51.478;5.692;2024-02-21T07:35:25;12.27;;;5.63;;
42832;SDS011;64089;51.478;5.692;2024-02-21T07:37:51;8.77;;;4.78;;
42832;SDS011;64089;51.478;5.692;2024-02-21T07:40:16;18.33;;;5.00;;
42832;SDS011;64089;51.478;5.692;2024-02-21T07:42:42;13.88;;;5.00;;
42832;SDS011;64089;51.478;5.692;2024-02-21T07:45:08;8.95;;;4.45;;
42832;SDS011;64089;51.478;5.692;2024-02-21T07:47:35;12.23;;;4.35;;
42832;SDS011;64089;51.478;5.692;2024-02-21T07:50:01;15.25;;;4.63;;
42832;SDS011;64089;51.478;5.692;2024-02-21T07:52:27;17.30;;;4.70;;
42832;SDS011;64089;51.478;5.692;2024-02-21T07:54:53;13.60;;;4.35;;
42832;SDS011;64089;51.478;5.692;2024-02-21T07:57:19;10.23;;;4.72;;
42832;SDS011;64089;51.478;5.692;2024-02-21T07:59:45;12.25;;;4.38;;
42832;SDS011;64089;51.478;5.692;2024-02-21T08:02:13;10.32;;;4.40;;
42832;SDS011;64089;51.478;5.692;2024-02-21T08:04:39;12.25;;;4.38;;
42832;SDS011;64089;51.478;5.692;2024-02-21T08:07:04;8.52;;;4.07;;
42832;SDS011;64089;51.478;5.692;2024-02-21T08:09:30;8.02;;;3.53;;
42832;SDS011;64089;51.478;5.692;2024-02-21T08:11:56;9.93;;;3.65;;
42832;SDS011;64089;51.478;5.692;2024-02-21T08:14:22;9.57;;;3.80;;
42832;SDS011;64089;51.478;5.692;2024-02-21T08:16:49;11.10;;;3.92;;
42832;SDS011;64089;51.478;5.692;2024-02-21T08:19:15;6.50;;;3.42;;
42832;SDS011;64089;51.478;5.692;2024-02-21T08:21:42;7.65;;;3.78;;
42832;SDS011;64089;51.478;5.692;2024-02-21T08:24:07;9.75;;;3.63;;
42832;SDS011;64089;51.478;5.692;2024-02-21T08:26:33;6.30;;;3.25;;
42832;SDS011;64089;51.478;5.692;2024-02-21T08:28:59;10.90;;;3.72;;
42832;SDS011;64089;51.478;5.692;2024-02-21T08:31:25;7.80;;;3.67;;
42832;SDS011;64089;51.478;5.692;2024-02-21T08:33:56;8.40;;;4.20;;
42832;SDS011;64089;51.478;5.692;2024-02-21T08:36:28;8.48;;;3.78;;
42832;SDS011;64089;51.478;5.692;2024-02-21T08:38:55;9.75;;;4.18;;
42832;SDS011;64089;51.478;5.692;2024-02-21T08:41:20;8.70;;;3.35;;
42832;SDS011;64089;51.478;5.692;2024-02-21T08:43:48;10.48;;;4.10;;
42832;SDS011;64089;51.478;5.692;2024-02-21T08:46:14;7.15;;;2.85;;
42832;SDS011;64089;51.478;5.692;2024-02-21T08:48:40;7.97;;;3.63;;
42832;SDS011;64089;51.478;5.692;2024-02-21T08:51:06;7.80;;;3.85;;
42832;SDS011;64089;51.478;5.692;2024-02-21T08:53:31;13.30;;;3.17;;
42832;SDS011;64089;51.478;5.692;2024-02-21T08:55:57;8.32;;;3.20;;
42832;SDS011;64089;51.478;5.692;2024-02-21T08:58:24;3.75;;;2.95;;
42832;SDS011;64089;51.478;5.692;2024-02-21T09:00:51;14.18;;;6.15;;
42832;SDS011;64089;51.478;5.692;2024-02-21T09:03:17;18.15;;;7.10;;
42832;SDS011;64089;51.478;5.692;2024-02-21T09:05:44;24.27;;;10.48;;
42832;SDS011;64089;51.478;5.692;2024-02-21T09:08:11;16.55;;;7.93;;
42832;SDS011;64089;51.478;5.692;2024-02-21T09:10:36;30.02;;;13.55;;
42832;SDS011;64089;51.478;5.692;2024-02-21T09:13:02;9.18;;;4.25;;
42832;SDS011;64089;51.478;5.692;2024-02-21T09:15:28;12.73;;;3.38;;
42832;SDS011;64089;51.478;5.692;2024-02-21T09:17:54;5.65;;;3.08;;
42832;SDS011;64089;51.478;5.692;2024-02-21T09:20:20;11.15;;;3.95;;
42832;SDS011;64089;51.478;5.692;2024-02-21T09:22:45;9.27;;;3.60;;
42832;SDS011;64089;51.478;5.692;2024-02-21T09:25:11;10.30;;;3.85;;
42832;SDS011;64089;51.478;5.692;2024-02-21T09:27:37;6.28;;;3.92;;
42832;SDS011;64089;51.478;5.692;2024-02-21T09:30:04;7.75;;;4.15;;
42832;SDS011;64089;51.478;5.692;2024-02-21T09:32:32;8.18;;;3.83;;
42832;SDS011;64089;51.478;5.692;2024-02-21T09:34:58;8.05;;;4.03;;
42832;SDS011;64089;51.478;5.692;2024-02-21T09:37:23;8.70;;;3.78;;
42832;SDS011;64089;51.478;5.692;2024-02-21T09:39:49;7.35;;;3.78;;
42832;SDS011;64089;51.478;5.692;2024-02-21T09:42:18;15.60;;;4.32;;
42832;SDS011;64089;51.478;5.692;2024-02-21T09:44:46;9.27;;;3.50;;
42832;SDS011;64089;51.478;5.692;2024-02-21T09:49:40;9.52;;;3.40;;
42832;SDS011;64089;51.478;5.692;2024-02-21T09:52:07;6.63;;;3.42;;
42832;SDS011;64089;51.478;5.692;2024-02-21T09:54:34;11.10;;;3.97;;
42832;SDS011;64089;51.478;5.692;2024-02-21T09:57:00;8.95;;;3.67;;
42832;SDS011;64089;51.478;5.692;2024-02-21T09:59:30;9.32;;;3.88;;
42832;SDS011;64089;51.478;5.692;2024-02-21T10:01:56;8.40;;;3.50;;
42832;SDS011;64089;51.478;5.692;2024-02-21T10:04:24;9.18;;;3.65;;
42832;SDS011;64089;51.478;5.692;2024-02-21T10:06:50;8.10;;;3.83;;
42832;SDS011;64089;51.478;5.692;2024-02-21T10:09:22;8.07;;;3.47;;
42832;SDS011;64089;51.478;5.692;2024-02-21T10:11:55;8.68;;;3.03;;
42832;SDS011;64089;51.478;5.692;2024-02-21T10:14:32;6.05;;;3.13;;
42832;SDS011;64089;51.478;5.692;2024-02-21T10:16:57;10.50;;;3.60;;
42832;SDS011;64089;51.478;5.692;2024-02-21T10:19:27;5.90;;;2.85;;
42832;SDS011;64089;51.478;5.692;2024-02-21T10:22:00;9.38;;;2.83;;
42832;SDS011;64089;51.478;5.692;2024-02-21T10:24:28;8.35;;;3.00;;
42832;SDS011;64089;51.478;5.692;2024-02-21T10:27:07;11.43;;;2.75;;
42832;SDS011;64089;51.478;5.692;2024-02-21T10:29:35;7.85;;;3.17;;
42832;SDS011;64089;51.478;5.692;2024-02-21T10:32:08;10.45;;;3.00;;
42832;SDS011;64089;51.478;5.692;2024-02-21T10:34:35;8.00;;;2.83;;
42832;SDS011;64089;51.478;5.692;2024-02-21T10:37:05;5.93;;;3.00;;
42832;SDS011;64089;51.478;5.692;2024-02-21T10:39:32;6.85;;;2.85;;
42832;SDS011;64089;51.478;5.692;2024-02-21T10:42:05;7.32;;;3.25;;
42832;SDS011;64089;51.478;5.692;2024-02-21T10:44:34;7.78;;;3.03;;
42832;SDS011;64089;51.478;5.692;2024-02-21T10:47:05;4.30;;;2.25;;
42832;SDS011;64089;51.478;5.692;2024-02-21T10:49:34;6.47;;;3.05;;
42832;SDS011;64089;51.478;5.692;2024-02-21T10:52:14;8.65;;;3.08;;
42832;SDS011;64089;51.478;5.692;2024-02-21T10:55:04;6.80;;;2.63;;
42832;SDS011;64089;51.478;5.692;2024-02-21T10:57:38;10.23;;;3.33;;
42832;SDS011;64089;51.478;5.692;2024-02-21T11:00:04;6.80;;;2.47;;
42832;SDS011;64089;51.478;5.692;2024-02-21T11:02:33;10.88;;;2.92;;
42832;SDS011;64089;51.478;5.692;2024-02-21T11:04:59;9.52;;;3.10;;
42832;SDS011;64089;51.478;5.692;2024-02-21T11:07:28;6.88;;;2.30;;
42832;SDS011;64089;51.478;5.692;2024-02-21T11:09:55;10.23;;;2.92;;
42832;SDS011;64089;51.478;5.692;2024-02-21T11:12:21;5.97;;;2.55;;
42832;SDS011;64089;51.478;5.692;2024-02-21T11:14:47;9.02;;;2.72;;
42832;SDS011;64089;51.478;5.692;2024-02-21T11:17:16;6.90;;;3.28;;
42832;SDS011;64089;51.478;5.692;2024-02-21T11:19:43;3.63;;;2.35;;
42832;SDS011;64089;51.478;5.692;2024-02-21T11:22:18;16.17;;;6.63;;
42832;SDS011;64089;51.478;5.692;2024-02-21T11:24:46;23.30;;;7.78;;
42832;SDS011;64089;51.478;5.692;2024-02-21T11:29:44;10.32;;;5.90;;
42832;SDS011;64089;51.478;5.692;2024-02-21T11:32:11;10.35;;;2.92;;
42832;SDS011;64089;51.478;5.692;2024-02-21T11:34:40;3.85;;;2.63;;
42832;SDS011;64089;51.478;5.692;2024-02-21T11:37:15;7.05;;;2.55;;
42832;SDS011;64089;51.478;5.692;2024-02-21T11:39:41;4.45;;;2.20;;
42832;SDS011;64089;51.478;5.692;2024-02-21T11:42:07;9.82;;;2.47;;
42832;SDS011;64089;51.478;5.692;2024-02-21T11:44:34;7.55;;;2.00;;
42832;SDS011;64089;51.478;5.692;2024-02-21T11:47:02;8.48;;;2.30;;
42832;SDS011;64089;51.478;5.692;2024-02-21T11:49:29;11.50;;;2.60;;
42832;SDS011;64089;51.478;5.692;2024-02-21T11:52:01;4.53;;;2.45;;
42832;SDS011;64089;51.478;5.692;2024-02-21T11:54:29;10.60;;;2.45;;
42832;SDS011;64089;51.478;5.692;2024-02-21T11:56:55;4.28;;;2.47;;
42832;SDS011;64089;51.478;5.692;2024-02-21T11:59:21;9.90;;;3.15;;
42832;SDS011;64089;51.478;5.692;2024-02-21T12:01:48;7.05;;;2.05;;
42832;SDS011;64089;51.478;5.692;2024-02-21T12:04:14;10.68;;;2.20;;
42832;SDS011;64089;51.478;5.692;2024-02-21T12:06:42;8.25;;;2.17;;
42832;SDS011;64089;51.478;5.692;2024-02-21T12:09:09;6.20;;;2.38;;
42832;SDS011;64089;51.478;5.692;2024-02-21T12:11:40;12.98;;;3.00;;
42832;SDS011;64089;51.478;5.692;2024-02-21T12:14:05;9.93;;;2.50;;
42832;SDS011;64089;51.478;5.692;2024-02-21T12:16:32;8.10;;;2.50;;
42832;SDS011;64089;51.478;5.692;2024-02-21T12:19:00;11.82;;;2.42;;
42832;SDS011;64089;51.478;5.692;2024-02-21T12:21:30;7.40;;;2.17;;
42832;SDS011;64089;51.478;5.692;2024-02-21T12:23:57;10.43;;;2.63;;
42832;SDS011;64089;51.478;5.692;2024-02-21T12:26:23;10.82;;;2.33;;
42832;SDS011;64089;51.478;5.692;2024-02-21T12:28:49;7.60;;;2.78;;
42832;SDS011;64089;51.478;5.692;2024-02-21T12:31:15;5.13;;;2.47;;
42832;SDS011;64089;51.478;5.692;2024-02-21T12:33:41;6.47;;;2.47;;
42832;SDS011;64089;51.478;5.692;2024-02-21T12:36:07;6.82;;;2.30;;
42832;SDS011;64089;51.478;5.692;2024-02-21T12:38:34;8.73;;;2.25;;
42832;SDS011;64089;51.478;5.692;2024-02-21T12:41:00;4.13;;;2.42;;
42832;SDS011;64089;51.478;5.692;2024-02-21T12:43:26;10.38;;;3.38;;
42832;SDS011;64089;51.478;5.692;2024-02-21T12:45:51;8.82;;;2.92;;
42832;SDS011;64089;51.478;5.692;2024-02-21T12:48:17;9.88;;;2.90;;
42832;SDS011;64089;51.478;5.692;2024-02-21T12:50:49;5.32;;;2.03;;
42832;SDS011;64089;51.478;5.692;2024-02-21T12:53:16;8.85;;;2.80;;
42832;SDS011;64089;51.478;5.692;2024-02-21T12:55:49;7.53;;;2.10;;
42832;SDS011;64089;51.478;5.692;2024-02-21T12:58:15;6.32;;;2.85;;
42832;SDS011;64089;51.478;5.692;2024-02-21T13:00:41;6.82;;;2.40;;
42832;SDS011;64089;51.478;5.692;2024-02-21T13:03:08;6.88;;;2.83;;
42832;SDS011;64089;51.478;5.692;2024-02-21T13:05:37;6.10;;;2.42;;
42832;SDS011;64089;51.478;5.692;2024-02-21T13:08:03;5.32;;;2.47;;
42832;SDS011;64089;51.478;5.692;2024-02-21T13:10:30;3.47;;;1.83;;
42832;SDS011;64089;51.478;5.692;2024-02-21T13:12:56;7.22;;;2.03;;
42832;SDS011;64089;51.478;5.692;2024-02-21T13:15:21;8.50;;;2.03;;
42832;SDS011;64089;51.478;5.692;2024-02-21T13:17:47;7.63;;;2.17;;
42832;SDS011;64089;51.478;5.692;2024-02-21T13:20:13;5.63;;;2.17;;
42832;SDS011;64089;51.478;5.692;2024-02-21T13:22:38;11.25;;;2.97;;
42832;SDS011;64089;51.478;5.692;2024-02-21T13:25:04;8.55;;;2.35;;
42832;SDS011;64089;51.478;5.692;2024-02-21T13:27:32;5.70;;;1.63;;
42832;SDS011;64089;51.478;5.692;2024-02-21T13:29:58;9.73;;;2.30;;
42832;SDS011;64089;51.478;5.692;2024-02-21T13:32:26;6.60;;;2.17;;
42832;SDS011;64089;51.478;5.692;2024-02-21T13:34:52;9.90;;;1.95;;
42832;SDS011;64089;51.478;5.692;2024-02-21T13:37:17;4.57;;;1.88;;
42832;SDS011;64089;51.478;5.692;2024-02-21T13:39:43;3.97;;;1.45;;
42832;SDS011;64089;51.478;5.692;2024-02-21T13:42:09;7.45;;;2.42;;
42832;SDS011;64089;51.478;5.692;2024-02-21T13:44:35;3.83;;;1.70;;
42832;SDS011;64089;51.478;5.692;2024-02-21T13:47:01;6.00;;;1.45;;
42832;SDS011;64089;51.478;5.692;2024-02-21T13:49:27;6.60;;;1.85;;
42832;SDS011;64089;51.478;5.692;2024-02-21T13:51:53;4.00;;;1.50;;
42832;SDS011;64089;51.478;5.692;2024-02-21T13:54:19;2.22;;;1.25;;
42832;SDS011;64089;51.478;5.692;2024-02-21T13:56:46;3.15;;;1.63;;
42832;SDS011;64089;51.478;5.692;2024-02-21T13:59:12;4.15;;;1.98;;
42832;SDS011;64089;51.478;5.692;2024-02-21T14:01:41;7.28;;;1.75;;
42832;SDS011;64089;51.478;5.692;2024-02-21T14:04:07;3.40;;;1.92;;
42832;SDS011;64089;51.478;5.692;2024-02-21T14:06:33;1.67;;;1.20;;
42832;SDS011;64089;51.478;5.692;2024-02-21T14:08:59;3.40;;;1.92;;
42832;SDS011;64089;51.478;5.692;2024-02-21T14:11:25;5.85;;;2.17;;
42832;SDS011;64089;51.478;5.692;2024-02-21T14:13:51;5.70;;;1.92;;
42832;SDS011;64089;51.478;5.692;2024-02-21T14:16:17;6.97;;;1.55;;
42832;SDS011;64089;51.478;5.692;2024-02-21T14:18:43;5.05;;;1.70;;
42832;SDS011;64089;51.478;5.692;2024-02-21T14:21:09;6.32;;;2.45;;
42832;SDS011;64089;51.478;5.692;2024-02-21T14:23:38;7.07;;;2.15;;
42832;SDS011;64089;51.478;5.692;2024-02-21T14:26:04;4.03;;;1.33;;
42832;SDS011;64089;51.478;5.692;2024-02-21T14:28:31;9.23;;;1.88;;
42832;SDS011;64089;51.478;5.692;2024-02-21T14:30:58;5.18;;;1.98;;
42832;SDS011;64089;51.478;5.692;2024-02-21T14:33:25;1.80;;;1.30;;
42832;SDS011;64089;51.478;5.692;2024-02-21T14:35:51;2.75;;;1.73;;
42832;SDS011;64089;51.478;5.692;2024-02-21T14:38:18;3.78;;;1.58;;
42832;SDS011;64089;51.478;5.692;2024-02-21T14:40:44;6.63;;;1.92;;
42832;SDS011;64089;51.478;5.692;2024-02-21T14:43:10;4.10;;;1.65;;
42832;SDS011;64089;51.478;5.692;2024-02-21T14:45:36;8.15;;;1.95;;
42832;SDS011;64089;51.478;5.692;2024-02-21T14:48:03;7.30;;;1.55;;
42832;SDS011;64089;51.478;5.692;2024-02-21T14:50:29;5.00;;;1.95;;